Terminal Aerodrome Forecast
Issued by NWS La Crosse, WI

Home | Current Version | Previous Version | Text Only | Print | Product List | Glossary On
Versions: 1 2 3 4 5 6 7 8 9 10 11 12 13 14 15
000
FTUS43 KARX 272331
TAFRST
TAF
KRST 272331Z 2800/2824 17012KT P6SM SCT250
     FM280500 17011KT P6SM BKN250 WS020/19045KT
     FM280900 17013KT 6SM SHRA VCTS OVC080CB
      TEMPO 2810/2813 26030KT 2SM TSRA BKN020CB
     FM281400 19015G25KT P6SM VCSH BKN015
     FM282200 23013G22KT P6SM VCTS BKN040CB=

USA.gov is the U.S. government's official web portal to all federal, state and local government web resources and services.